Time;durP1;ratioP1;P1;durP2;ratioP2;P2;SDS_P1;SDS_P2;PMS_P1;PMS_P2;Temp;Humidity;BMP_temperature;BMP_pressure;BME280_temperature;BME280_humidity;BME280_pressure;Samples;Min_cycle;Max_cycle;Signal;HPM_P1;HPM_P2
2020/12/15 00:01:07;;;;;;;26.67;18.45;;;;;;;;;;5053040;28;20010;-70
2020/12/15 00:03:33;;;;;;;31.77;21.10;;;;;;;;;;5055095;28;20037;-70
2020/12/15 00:05:58;;;;;;;36.42;21.10;;;;;;;;;;5056620;28;20021;-68
2020/12/15 00:08:24;;;;;;;33.10;21.20;;;;;;;;;;5056535;28;20025;-70
2020/12/15 00:10:49;;;;;;;33.17;21.65;;;;;;;;;;5055256;28;20371;-70
2020/12/15 00:13:15;;;;;;;32.97;21.50;;;;;;;;;;5056629;28;20032;-70
2020/12/15 00:15:40;;;;;;;36.95;22.58;;;;;;;;;;5056755;28;20017;-70
2020/12/15 00:18:06;;;;;;;41.17;25.20;;;;;;;;;;5056782;28;20040;-71
2020/12/15 00:20:32;;;;;;;46.85;27.23;;;;;;;;;;5056490;28;20455;-70
2020/12/15 00:22:57;;;;;;;44.35;27.70;;;;;;;;;;5056061;28;20051;-70
2020/12/15 00:25:23;;;;;;;32.53;20.70;;;;;;;;;;5056305;28;20017;-70
2020/12/15 00:27:48;;;;;;;32.00;20.25;;;;;;;;;;5056377;28;20507;-70
2020/12/15 00:30:14;;;;;;;38.28;23.15;;;;;;;;;;5054829;28;20033;-70
2020/12/15 00:32:39;;;;;;;32.33;21.42;;;;;;;;;;5056035;28;20025;-71
2020/12/15 00:35:05;;;;;;;30.92;20.80;;;;;;;;;;5056114;28;20013;-70
2020/12/15 00:37:34;;;;;;;28.70;20.13;;;;;;;;;;5056045;28;20029;-71
2020/12/15 00:40:00;;;;;;;30.77;19.20;;;;;;;;;;5055914;28;20017;-71
2020/12/15 00:42:25;;;;;;;35.78;21.95;;;;;;;;;;5056253;28;20028;-70
2020/12/15 00:44:51;;;;;;;35.38;22.25;;;;;;;;;;5054902;28;20044;-69
2020/12/15 00:47:16;;;;;;;38.60;23.15;;;;;;;;;;5055006;28;20029;-69
2020/12/15 00:49:42;;;;;;;40.03;23.05;;;;;;;;;;5055863;28;20017;-69
2020/12/15 00:52:07;;;;;;;36.67;22.77;;;;;;;;;;5054841;28;20174;-69
2020/12/15 00:54:33;;;;;;;34.13;21.65;;;;;;;;;;5054048;28;20056;-70
2020/12/15 00:56:58;;;;;;;39.63;22.10;;;;;;;;;;5055650;28;20433;-69
2020/12/15 00:59:24;;;;;;;37.10;22.25;;;;;;;;;;5054489;28;20033;-70
2020/12/15 01:01:50;;;;;;;37.92;22.85;;;;;;;;;;5054410;28;20036;-70
2020/12/15 01:04:18;;;;;;;38.42;23.17;;;;;;;;;;5038133;28;20104;-69
2020/12/15 01:06:48;;;;;;;35.25;22.75;;;;;;;;;;5054285;28;20546;-69
2020/12/15 01:09:13;;;;;;;35.60;22.20;;;;;;;;;;5055510;28;20040;-69
2020/12/15 01:11:39;;;;;;;38.65;22.85;;;;;;;;;;5054304;28;20032;-69
2020/12/15 01:14:09;;;;;;;39.33;24.73;;;;;;;;;;5036957;28;20468;-70
2020/12/15 01:16:39;;;;;;;42.22;24.10;;;;;;;;;;5054501;28;20033;-69
2020/12/15 01:19:05;;;;;;;36.80;23.38;;;;;;;;;;5053875;28;20025;-68
2020/12/15 01:21:33;;;;;;;45.15;26.17;;;;;;;;;;5071271;28;20025;-68
2020/12/15 01:24:04;;;;;;;40.53;24.33;;;;;;;;;;5055451;28;20047;-70
2020/12/15 01:26:36;;;;;;;43.67;24.92;;;;;;;;;;5054030;28;20029;-69
2020/12/15 01:29:02;;;;;;;44.55;25.63;;;;;;;;;;5053947;28;20083;-70
2020/12/15 01:31:29;;;;;;;36.78;23.15;;;;;;;;;;5055084;28;20471;-70
2020/12/15 01:34:13;;;;;;;44.55;25.40;;;;;;;;;;5053676;28;20033;-70
2020/12/15 01:36:50;;;;;;;44.95;25.35;;;;;;;;;;5055129;28;20083;-69
2020/12/15 01:39:20;;;;;;;42.50;25.15;;;;;;;;;;5053688;28;20025;-70
2020/12/15 01:42:02;;;;;;;38.80;23.45;;;;;;;;;;5055102;28;20056;-70
2020/12/15 01:44:29;;;;;;;40.10;24.05;;;;;;;;;;5053557;28;20128;-69
2020/12/15 01:46:57;;;;;;;39.67;23.75;;;;;;;;;;5053710;28;20483;-69
2020/12/15 01:49:30;;;;;;;42.95;24.15;;;;;;;;;;5053909;28;20033;-69
2020/12/15 01:51:59;;;;;;;40.47;24.60;;;;;;;;;;5053675;28;20031;-69
2020/12/15 01:54:32;;;;;;;44.58;25.42;;;;;;;;;;5037328;28;20044;-69
2020/12/15 01:56:58;;;;;;;45.00;25.20;;;;;;;;;;5053271;28;20142;-70
2020/12/15 01:59:45;;;;;;;45.92;26.55;;;;;;;;;;5053458;28;20025;-70
2020/12/15 02:02:14;;;;;;;43.88;24.08;;;;;;;;;;5070439;28;20060;-70
2020/12/15 02:04:47;;;;;;;46.80;26.95;;;;;;;;;;5053054;28;20025;-70
2020/12/15 02:07:13;;;;;;;47.15;26.90;;;;;;;;;;5052527;28;20029;-70
2020/12/15 02:09:40;;;;;;;45.35;26.05;;;;;;;;;;5054507;28;20451;-70
2020/12/15 02:12:20;;;;;;;41.20;25.23;;;;;;;;;;5052765;28;20028;-70
2020/12/15 02:14:46;;;;;;;42.10;24.73;;;;;;;;;;5052957;28;20032;-70
2020/12/15 02:17:21;;;;;;;40.05;24.83;;;;;;;;;;5053238;28;20013;-70
2020/12/15 02:20:11;;;;;;;44.92;25.92;;;;;;;;;;5053604;28;20049;-70
2020/12/15 02:22:57;;;;;;;43.28;25.02;;;;;;;;;;5053198;28;20112;-70
2020/12/15 02:25:25;;;;;;;48.08;27.88;;;;;;;;;;5052730;28;20036;-70
2020/12/15 02:27:51;;;;;;;42.85;25.55;;;;;;;;;;5052515;28;20025;-70
2020/12/15 02:30:17;;;;;;;42.60;25.27;;;;;;;;;;5052464;28;20025;-70
2020/12/15 02:32:45;;;;;;;43.15;25.95;;;;;;;;;;5052533;28;20039;-70
2020/12/15 02:35:14;;;;;;;43.63;26.55;;;;;;;;;;5052542;28;20033;-70
2020/12/15 02:37:42;;;;;;;47.53;26.65;;;;;;;;;;5052726;28;20096;-70
2020/12/15 02:40:08;;;;;;;46.05;26.35;;;;;;;;;;5052533;28;20029;-70
2020/12/15 02:42:51;;;;;;;48.78;28.08;;;;;;;;;;5052612;28;20475;-70
2020/12/15 02:45:21;;;;;;;;;;;;;;;;;;5052948;28;20115;-70
2020/12/15 02:47:47;;;;;;;49.38;28.48;;;;;;;;;;5052428;28;19999;-70
2020/12/15 02:50:22;;;;;;;53.28;29.02;;;;;;;;;;5052136;28;20033;-70
2020/12/15 02:52:55;;;;;;;50.63;28.77;;;;;;;;;;5052309;28;20037;-70
2020/12/15 02:55:23;;;;;;;50.60;28.58;;;;;;;;;;5035972;28;20056;-70
2020/12/15 02:57:50;;;;;;;50.55;28.38;;;;;;;;;;5052310;28;20036;-69
2020/12/15 03:00:17;;;;;;;55.60;29.88;;;;;;;;;;5051814;28;20037;-69
2020/12/15 03:02:46;;;;;;;48.35;27.48;;;;;;;;;;5052331;28;20536;-69
2020/12/15 03:05:11;;;;;;;50.33;28.90;;;;;;;;;;5052346;28;20044;-70
2020/12/15 03:07:39;;;;;;;50.85;28.67;;;;;;;;;;5052417;28;20060;-70
2020/12/15 03:10:06;;;;;;;59.20;30.15;;;;;;;;;;5052340;28;20064;-69
2020/12/15 03:12:39;;;;;;;51.38;28.23;;;;;;;;;;5052308;28;20528;-69
2020/12/15 03:15:04;;;;;;;51.58;28.10;;;;;;;;;;5052012;28;20033;-70
2020/12/15 03:17:30;;;;;;;51.08;28.55;;;;;;;;;;5051902;28;20013;-70
2020/12/15 03:19:57;;;;;;;53.90;28.83;;;;;;;;;;5051817;28;20036;-70
2020/12/15 03:22:23;;;;;;;53.53;29.92;;;;;;;;;;5051916;28;20017;-69
2020/12/15 03:24:54;;;;;;;57.67;30.02;;;;;;;;;;5051976;28;20044;-70
2020/12/15 03:27:24;;;;;;;51.50;28.05;;;;;;;;;;5052137;28;20068;-70
2020/12/15 03:29:51;;;;;;;54.40;28.60;;;;;;;;;;5051881;28;20025;-70
2020/12/15 03:32:18;;;;;;;51.45;28.60;;;;;;;;;;5052043;28;20123;-70
2020/12/15 03:34:43;;;;;;;51.35;28.17;;;;;;;;;;5051795;28;20378;-70
2020/12/15 03:37:09;;;;;;;53.22;28.33;;;;;;;;;;5053266;28;20025;-70
2020/12/15 03:39:42;;;;;;;50.60;28.23;;;;;;;;;;5040634;28;20052;-70
2020/12/15 03:42:20;;;;;;;47.33;25.90;;;;;;;;;;5056099;28;20033;-70
2020/12/15 03:44:46;;;;;;;45.47;25.17;;;;;;;;;;5055877;28;20437;-70
2020/12/15 03:47:14;;;;;;;44.22;24.48;;;;;;;;;;5039822;28;20024;-69
2020/12/15 03:49:40;;;;;;;47.92;25.55;;;;;;;;;;5055897;28;20528;-70
2020/12/15 03:52:07;;;;;;;57.53;28.35;;;;;;;;;;5056094;28;20025;-70
2020/12/15 03:54:32;;;;;;;50.78;26.90;;;;;;;;;;5056515;28;20041;-70
2020/12/15 03:57:33;;;;;;;48.17;26.77;;;;;;;;;;5034891;28;20049;-70
2020/12/15 04:00:31;;;;;;;45.03;26.02;;;;;;;;;;5033630;28;20044;-70
2020/12/15 04:03:09;;;;;;;41.38;24.55;;;;;;;;;;5055648;28;20040;-70
2020/12/15 04:05:58;;;;;;;47.38;25.88;;;;;;;;;;5056077;28;20039;-70
2020/12/15 04:08:27;;;;;;;44.17;24.38;;;;;;;;;;5055645;28;20094;-70
2020/12/15 04:10:53;;;;;;;45.63;26.20;;;;;;;;;;5038934;28;20025;-70
2020/12/15 04:13:26;;;;;;;46.20;25.38;;;;;;;;;;5055260;28;20025;-70
2020/12/15 04:15:53;;;;;;;49.60;25.77;;;;;;;;;;5055544;28;20490;-69
2020/12/15 04:18:25;;;;;;;43.63;25.10;;;;;;;;;;5055632;28;20028;-70
2020/12/15 04:20:51;;;;;;;47.03;26.35;;;;;;;;;;5038768;28;20025;-69
2020/12/15 04:23:18;;;;;;;45.28;25.60;;;;;;;;;;5055121;28;20104;-70
2020/12/15 04:25:55;;;;;;;45.85;26.35;;;;;;;;;;5055160;28;20072;-70
2020/12/15 04:28:27;;;;;;;48.63;27.20;;;;;;;;;;5055229;28;20120;-71
2020/12/15 04:30:53;;;;;;;47.65;27.20;;;;;;;;;;5054830;28;20064;-70
2020/12/15 04:33:20;;;;;;;49.47;28.25;;;;;;;;;;5054681;28;20025;-70
2020/12/15 04:35:50;;;;;;;61.97;30.63;;;;;;;;;;5056251;28;20027;-70
2020/12/15 04:38:15;;;;;;;44.28;25.73;;;;;;;;;;5055041;28;20013;-71
2020/12/15 04:40:43;;;;;;;42.70;25.52;;;;;;;;;;5054896;28;20076;-70
2020/12/15 04:43:12;;;;;;;45.05;26.17;;;;;;;;;;5055050;28;20402;-70
2020/12/15 04:45:38;;;;;;;45.78;26.15;;;;;;;;;;5056316;28;20060;-70
2020/12/15 04:48:06;;;;;;;49.63;26.77;;;;;;;;;;5053663;28;20033;-71
2020/12/15 04:51:05;;;;;;;51.55;27.33;;;;;;;;;;5051511;28;20124;-71
2020/12/15 04:53:36;;;;;;;54.30;28.85;;;;;;;;;;5053878;28;20021;-71
2020/12/15 04:56:29;;;;;;;52.95;29.88;;;;;;;;;;5053159;28;20124;-71
2020/12/15 04:59:04;;;;;;;47.10;27.90;;;;;;;;;;5054551;28;20033;-70
2020/12/15 05:01:39;;;;;;;45.08;27.13;;;;;;;;;;5055647;28;20426;-71
2020/12/15 05:04:12;;;;;;;45.03;26.42;;;;;;;;;;5054312;28;20548;-71
2020/12/15 05:06:51;;;;;;;45.50;26.05;;;;;;;;;;5051648;28;20037;-71
2020/12/15 05:09:21;;;;;;;50.50;27.93;;;;;;;;;;5041409;28;20486;-71
2020/12/15 05:11:47;;;;;;;41.22;26.15;;;;;;;;;;5034332;28;20268;-70
2020/12/15 05:14:21;;;;;;;41.30;25.17;;;;;;;;;;5050888;28;20024;-70
2020/12/15 05:16:47;;;;;;;44.25;26.35;;;;;;;;;;5047675;28;20407;-70
2020/12/15 05:19:23;;;;;;;43.83;27.42;;;;;;;;;;5053958;28;20028;-71
2020/12/15 05:21:57;;;;;;;41.95;25.70;;;;;;;;;;5053813;28;20021;-70
2020/12/15 05:24:28;;;;;;;47.42;26.90;;;;;;;;;;5053682;28;20044;-71
2020/12/15 05:26:55;;;;;;;48.78;27.73;;;;;;;;;;5053709;28;20554;-70
2020/12/15 05:29:21;;;;;;;50.95;29.23;;;;;;;;;;5053947;28;20345;-71
2020/12/15 05:32:26;;;;;;;52.15;28.63;;;;;;;;;;5032981;28;20079;-71
2020/12/15 05:35:24;;;;;;;55.45;29.13;;;;;;;;;;5030307;28;20065;-71
2020/12/15 05:38:13;;;;;;;57.30;30.63;;;;;;;;;;5033527;28;20033;-71
2020/12/15 05:41:04;;;;;;;54.15;30.02;;;;;;;;;;5053834;28;20112;-71
2020/12/15 05:43:41;;;;;;;57.58;31.08;;;;;;;;;;5052144;28;20479;-71
2020/12/15 05:46:08;;;;;;;56.85;29.65;;;;;;;;;;5052384;28;20024;-71
2020/12/15 05:48:36;;;;;;;50.70;27.92;;;;;;;;;;5036182;28;20364;-71
2020/12/15 05:51:01;;;;;;;53.20;29.42;;;;;;;;;;5054544;28;20513;-70
2020/12/15 05:53:27;;;;;;;52.50;28.35;;;;;;;;;;5054671;28;20103;-70
2020/12/15 05:55:52;;;;;;;50.03;27.92;;;;;;;;;;5053183;28;20041;-70
2020/12/15 05:58:18;;;;;;;49.30;27.58;;;;;;;;;;5054331;28;20025;-70
2020/12/15 06:00:44;;;;;;;52.30;27.98;;;;;;;;;;5053990;28;20064;-70
2020/12/15 06:03:09;;;;;;;53.50;29.50;;;;;;;;;;5054471;28;20025;-70
2020/12/15 06:05:37;;;;;;;62.08;32.13;;;;;;;;;;5054612;28;20079;-70
2020/12/15 06:08:04;;;;;;;98.20;41.13;;;;;;;;;;5054736;28;20056;-70
2020/12/15 06:10:31;;;;;;;181.25;57.97;;;;;;;;;;5054623;28;20112;-70
2020/12/15 06:12:59;;;;;;;153.15;50.40;;;;;;;;;;5054243;28;20017;-70
2020/12/15 06:15:25;;;;;;;99.95;42.05;;;;;;;;;;5054473;28;20021;-70
2020/12/15 06:18:01;;;;;;;96.47;42.75;;;;;;;;;;5054296;28;20451;-70
2020/12/15 06:20:34;;;;;;;97.25;43.42;;;;;;;;;;5054296;28;20074;-70
2020/12/15 06:22:59;;;;;;;121.00;46.85;;;;;;;;;;5054058;28;20025;-70
2020/12/15 06:25:32;;;;;;;104.65;41.28;;;;;;;;;;5054078;28;20116;-70
2020/12/15 06:27:59;;;;;;;66.47;32.00;;;;;;;;;;5054067;28;20029;-70
2020/12/15 06:30:27;;;;;;;60.35;29.60;;;;;;;;;;5054023;28;20025;-70
2020/12/15 06:33:03;;;;;;;58.30;29.77;;;;;;;;;;5054041;28;20471;-70
2020/12/15 06:35:28;;;;;;;50.60;26.35;;;;;;;;;;5053825;28;20540;-70
2020/12/15 06:37:54;;;;;;;45.25;26.10;;;;;;;;;;5053989;28;20033;-70
2020/12/15 06:40:20;;;;;;;45.83;26.17;;;;;;;;;;5053898;28;20027;-70
2020/12/15 06:42:52;;;;;;;44.38;25.15;;;;;;;;;;5041286;28;20049;-70
2020/12/15 06:45:21;;;;;;;43.47;24.80;;;;;;;;;;5052087;28;20025;-70
2020/12/15 06:47:54;;;;;;;45.15;25.88;;;;;;;;;;5053672;28;20024;-70
2020/12/15 06:50:19;;;;;;;47.60;28.33;;;;;;;;;;5053679;28;20036;-70
2020/12/15 06:52:46;;;;;;;68.70;33.30;;;;;;;;;;5053690;28;20009;-70
2020/12/15 06:55:11;;;;;;;197.00;77.20;;;;;;;;;;5037210;28;20053;-70
2020/12/15 06:57:37;;;;;;;121.20;59.20;;;;;;;;;;5033568;28;20039;-70
2020/12/15 07:00:07;;;;;;;86.97;42.42;;;;;;;;;;5033687;28;20029;-70
2020/12/15 07:02:32;;;;;;;58.58;32.25;;;;;;;;;;5033681;28;20033;-70
2020/12/15 07:05:11;;;;;;;56.03;29.35;;;;;;;;;;5033911;28;20044;-70
2020/12/15 07:07:45;;;;;;;57.00;28.50;;;;;;;;;;5033315;28;20538;-70
2020/12/15 07:10:12;;;;;;;60.03;28.92;;;;;;;;;;5043372;28;20029;-70
2020/12/15 07:12:40;;;;;;;59.53;29.67;;;;;;;;;;5041656;28;20017;-70
2020/12/15 07:15:05;;;;;;;57.05;30.00;;;;;;;;;;5052722;28;20035;-70
2020/12/15 07:17:32;;;;;;;63.85;30.75;;;;;;;;;;5038454;28;20593;-70
2020/12/15 07:20:00;;;;;;;53.03;29.05;;;;;;;;;;5040172;28;20026;-70
2020/12/15 07:22:25;;;;;;;48.45;27.48;;;;;;;;;;5048066;28;20021;-70
2020/12/15 07:24:50;;;;;;;44.88;25.85;;;;;;;;;;5039803;28;20146;-70
2020/12/15 07:27:18;;;;;;;60.83;27.67;;;;;;;;;;5042075;28;20088;-70
2020/12/15 07:29:51;;;;;;;55.80;26.75;;;;;;;;;;5040041;28;20061;-70
2020/12/15 07:32:17;;;;;;;63.08;28.73;;;;;;;;;;5053658;28;20033;-70
2020/12/15 07:34:42;;;;;;;59.60;29.15;;;;;;;;;;5033069;28;20029;-70
2020/12/15 07:37:08;;;;;;;55.20;26.63;;;;;;;;;;5040229;28;20032;-70
2020/12/15 07:39:33;;;;;;;63.78;29.08;;;;;;;;;;5038293;28;20025;-70
2020/12/15 07:42:01;;;;;;;69.32;31.52;;;;;;;;;;5051843;28;20029;-70
2020/12/15 07:44:34;;;;;;;60.97;29.88;;;;;;;;;;5038118;28;20104;-70
2020/12/15 07:46:59;;;;;;;51.25;29.02;;;;;;;;;;5033265;28;20595;-70
2020/12/15 07:49:25;;;;;;;102.00;47.40;;;;;;;;;;5033016;28;20025;-70
2020/12/15 07:51:51;;;;;;;94.60;46.83;;;;;;;;;;5032612;28;20029;-70
2020/12/15 07:54:16;;;;;;;92.53;51.35;;;;;;;;;;5031996;28;20045;-70
2020/12/15 07:56:42;;;;;;;145.20;77.72;;;;;;;;;;5032910;28;20476;-70
2020/12/15 07:59:11;;;;;;;138.88;69.57;;;;;;;;;;5032852;28;20030;-70
2020/12/15 08:01:37;;;;;;;149.20;92.25;;;;;;;;;;5032705;28;20026;-70
2020/12/15 08:04:12;;;;;;;108.18;56.65;;;;;;;;;;5032636;28;20388;-70
2020/12/15 08:06:39;;;;;;;65.18;36.85;;;;;;;;;;5032666;28;20029;-70
2020/12/15 08:09:05;;;;;;;59.08;34.47;;;;;;;;;;5032752;28;20572;-70
2020/12/15 08:11:30;;;;;;;59.55;32.60;;;;;;;;;;5032661;28;20040;-70
2020/12/15 08:13:56;;;;;;;57.00;32.83;;;;;;;;;;5031250;28;20030;-70
2020/12/15 08:16:22;;;;;;;43.50;26.92;;;;;;;;;;5032454;28;20045;-70
2020/12/15 08:18:48;;;;;;;47.42;28.33;;;;;;;;;;5031304;28;20547;-69
2020/12/15 08:21:15;;;;;;;42.33;26.08;;;;;;;;;;5032587;28;20030;-70
2020/12/15 08:23:47;;;;;;;46.33;26.08;;;;;;;;;;5032785;28;20080;-70
2020/12/15 08:26:14;;;;;;;42.17;26.42;;;;;;;;;;5036240;28;20040;-69
2020/12/15 08:28:39;;;;;;;38.08;23.65;;;;;;;;;;5035993;28;20026;-70
2020/12/15 08:31:08;;;;;;;44.95;26.17;;;;;;;;;;5036112;28;20033;-69
2020/12/15 08:33:33;;;;;;;38.38;24.38;;;;;;;;;;5035943;28;20111;-70
2020/12/15 08:35:59;;;;;;;38.72;24.45;;;;;;;;;;5035878;28;20029;-70
2020/12/15 08:38:25;;;;;;;42.60;25.88;;;;;;;;;;5034705;28;20116;-70
2020/12/15 08:40:52;;;;;;;44.40;26.25;;;;;;;;;;5034671;28;20495;-69
2020/12/15 08:43:19;;;;;;;45.00;28.10;;;;;;;;;;5035716;28;20033;-69
2020/12/15 08:45:44;;;;;;;40.65;25.67;;;;;;;;;;5035756;28;20116;-70
2020/12/15 08:48:14;;;;;;;43.15;24.67;;;;;;;;;;5034424;28;20101;-70
2020/12/15 08:50:40;;;;;;;38.42;24.63;;;;;;;;;;5034562;28;20478;-70
2020/12/15 08:53:11;;;;;;;45.88;26.52;;;;;;;;;;5035701;28;20029;-70
2020/12/15 08:55:37;;;;;;;122.70;71.57;;;;;;;;;;5035469;28;20043;-70
2020/12/15 08:58:03;;;;;;;65.22;35.78;;;;;;;;;;5035526;28;20498;-69
2020/12/15 09:00:33;;;;;;;137.85;67.85;;;;;;;;;;5035512;28;20118;-69
2020/12/15 09:03:11;;;;;;;45.72;27.58;;;;;;;;;;5035542;28;20083;-70
2020/12/15 09:05:52;;;;;;;40.35;26.33;;;;;;;;;;5035470;28;20124;-70
2020/12/15 09:08:19;;;;;;;89.20;52.45;;;;;;;;;;5034206;28;20057;-70
2020/12/15 09:10:45;;;;;;;59.33;35.83;;;;;;;;;;5035313;28;20021;-70
2020/12/15 09:13:10;;;;;;;47.42;29.10;;;;;;;;;;5035270;28;20030;-70
2020/12/15 09:15:55;;;;;;;305.00;168.30;;;;;;;;;;5034180;28;20435;-70
2020/12/15 09:18:31;;;;;;;147.00;86.55;;;;;;;;;;5033939;28;20516;-70
2020/12/15 09:21:07;;;;;;;43.35;27.30;;;;;;;;;;5034846;28;20382;-70
2020/12/15 09:23:34;;;;;;;65.53;39.72;;;;;;;;;;5035158;28;20037;-70
2020/12/15 09:25:59;;;;;;;40.65;24.80;;;;;;;;;;5035056;28;20030;-70
2020/12/15 09:28:29;;;;;;;41.40;24.10;;;;;;;;;;5033956;28;20395;-70
2020/12/15 09:30:55;;;;;;;47.03;27.67;;;;;;;;;;5034960;28;20049;-70
2020/12/15 09:33:21;;;;;;;50.03;30.27;;;;;;;;;;5034879;28;20028;-70
2020/12/15 09:35:48;;;;;;;63.80;38.45;;;;;;;;;;5034207;28;20021;-70
2020/12/15 09:38:14;;;;;;;48.78;28.02;;;;;;;;;;5034769;28;20104;-70
2020/12/15 09:40:40;;;;;;;71.35;40.13;;;;;;;;;;5034685;28;20037;-70
2020/12/15 09:43:06;;;;;;;55.72;32.58;;;;;;;;;;5034763;28;20025;-55
2020/12/15 09:45:32;;;;;;;48.78;29.25;;;;;;;;;;5033424;28;20399;-72
2020/12/15 09:47:59;;;;;;;42.50;24.88;;;;;;;;;;5034529;28;20025;-71
2020/12/15 09:50:27;;;;;;;42.40;24.50;;;;;;;;;;5033404;28;20041;-71
2020/12/15 09:52:52;;;;;;;39.58;24.10;;;;;;;;;;5033108;28;20384;-71
2020/12/15 09:55:18;;;;;;;37.25;21.88;;;;;;;;;;5034382;28;20042;-71
2020/12/15 09:57:46;;;;;;;36.08;21.75;;;;;;;;;;5033173;28;20041;-71
2020/12/15 10:00:12;;;;;;;39.45;22.27;;;;;;;;;;5033370;28;20599;-71
2020/12/15 10:02:38;;;;;;;34.85;20.40;;;;;;;;;;5034429;28;20045;-71
2020/12/15 10:05:05;;;;;;;34.78;21.25;;;;;;;;;;5033126;28;20057;-71
2020/12/15 10:07:31;;;;;;;34.10;21.15;;;;;;;;;;5034252;28;20013;-71
2020/12/15 10:09:58;;;;;;;39.85;23.35;;;;;;;;;;5032854;28;20025;-71
2020/12/15 10:12:26;;;;;;;40.45;23.65;;;;;;;;;;5032937;28;20014;-71
2020/12/15 10:15:04;;;;;;;43.47;24.35;;;;;;;;;;5033458;28;20095;-71
2020/12/15 10:17:33;;;;;;;37.42;22.63;;;;;;;;;;5034068;28;20036;-71
2020/12/15 10:19:58;;;;;;;40.67;23.95;;;;;;;;;;5032878;28;20116;-71
2020/12/15 10:22:25;;;;;;;46.25;25.48;;;;;;;;;;5032759;28;20447;-71
2020/12/15 10:24:51;;;;;;;51.85;27.63;;;;;;;;;;5033931;28;20036;-71
2020/12/15 10:27:19;;;;;;;67.70;33.05;;;;;;;;;;5033886;28;20034;-73
2020/12/15 10:29:45;;;;;;;43.53;23.65;;;;;;;;;;5034428;28;20551;-72
2020/12/15 10:32:11;;;;;;;45.05;26.55;;;;;;;;;;5033882;28;20060;-71
2020/12/15 10:34:36;;;;;;;40.22;23.30;;;;;;;;;;5032417;28;20104;-72
2020/12/15 10:37:03;;;;;;;43.30;24.83;;;;;;;;;;5033842;28;20036;-72
2020/12/15 10:39:30;;;;;;;40.67;23.42;;;;;;;;;;5033871;28;20026;-73
2020/12/15 10:41:56;;;;;;;49.10;27.67;;;;;;;;;;5033893;28;20038;-73
2020/12/15 10:44:22;;;;;;;39.60;24.70;;;;;;;;;;5033711;28;20096;-73
2020/12/15 10:46:50;;;;;;;53.22;30.48;;;;;;;;;;5031502;28;20446;-73
2020/12/15 10:49:19;;;;;;;57.63;30.83;;;;;;;;;;5032440;28;20022;-74
2020/12/15 10:51:49;;;;;;;66.32;33.22;;;;;;;;;;5015860;28;20068;-73
2020/12/15 10:54:18;;;;;;;53.03;29.67;;;;;;;;;;5032978;28;20079;-74
2020/12/15 10:56:44;;;;;;;51.90;28.33;;;;;;;;;;5032367;28;20045;-73
2020/12/15 10:59:12;;;;;;;51.42;29.58;;;;;;;;;;5032138;28;20562;-72
2020/12/15 11:01:38;;;;;;;56.83;32.92;;;;;;;;;;5033279;28;20013;-73
2020/12/15 11:04:05;;;;;;;57.05;33.83;;;;;;;;;;5033343;28;20124;-73
2020/12/15 11:06:35;;;;;;;57.22;34.58;;;;;;;;;;5016022;28;20125;-73
2020/12/15 11:09:03;;;;;;;61.38;34.20;;;;;;;;;;5033165;28;20053;-73
2020/12/15 11:11:31;;;;;;;56.33;31.92;;;;;;;;;;5032811;28;20091;-71
2020/12/15 11:13:58;;;;;;;49.67;28.60;;;;;;;;;;5033152;28;20026;-71
2020/12/15 11:16:24;;;;;;;49.55;28.33;;;;;;;;;;5031898;28;20136;-71
2020/12/15 11:18:49;;;;;;;48.85;28.23;;;;;;;;;;5033481;28;20068;-71
2020/12/15 11:21:15;;;;;;;49.35;27.92;;;;;;;;;;5033245;28;20097;-71
2020/12/15 11:23:43;;;;;;;47.35;26.67;;;;;;;;;;5033170;28;20025;-71
2020/12/15 11:26:09;;;;;;;50.38;30.38;;;;;;;;;;5033232;28;20026;-71
2020/12/15 11:28:34;;;;;;;62.90;36.90;;;;;;;;;;5031834;28;20034;-71
2020/12/15 11:31:02;;;;;;;59.38;33.17;;;;;;;;;;5032945;28;20056;-71
2020/12/15 11:37:09;;;;;;;54.65;29.55;;;;;;;;;;5033797;28;20490;-72
2020/12/15 11:43:12;;;;;;;38.88;23.20;;;;;;;;;;5033448;28;20096;-71
2020/12/15 11:49:12;;;;;;;69.82;36.97;;;;;;;;;;5033411;28;20076;-71
2020/12/15 12:02:50;;;;;;;52.55;30.92;;;;;;;;;;5057134;28;20104;-71
2020/12/15 12:08:51;;;;;;;72.30;44.20;;;;;;;;;;5057268;28;20051;-71
2020/12/15 12:14:52;;;;;;;64.32;38.03;;;;;;;;;;5056804;28;20076;-71
2020/12/15 12:20:53;;;;;;;52.65;31.90;;;;;;;;;;5057035;28;20514;-71
2020/12/15 12:30:58;;;;;;;68.35;38.35;;;;;;;;;;5056863;28;20104;-72
2020/12/15 12:36:59;;;;;;;78.38;39.08;;;;;;;;;;5056728;28;20031;-72
2020/12/15 12:43:02;;;;;;;131.60;82.75;;;;;;;;;;5056618;28;20164;-71
2020/12/15 12:49:02;;;;;;;68.13;40.63;;;;;;;;;;5056494;28;20485;-71
2020/12/15 12:55:04;;;;;;;68.85;40.88;;;;;;;;;;5065581;28;20099;-71
2020/12/15 12:57:30;;;;;;;66.60;37.17;;;;;;;;;;5037464;28;20029;-71
2020/12/15 12:59:55;;;;;;;64.43;36.13;;;;;;;;;;5055266;28;20091;-72
2020/12/15 13:02:21;;;;;;;65.28;35.25;;;;;;;;;;5037685;28;20029;-71
2020/12/15 13:04:51;;;;;;;100.75;50.47;;;;;;;;;;5055430;28;20075;-71
2020/12/15 13:10:52;;;;;;;77.45;41.90;;;;;;;;;;5055061;28;20023;-71
2020/12/15 13:13:18;;;;;;;71.88;39.28;;;;;;;;;;5040066;28;20036;-71
2020/12/15 13:15:43;;;;;;;69.80;37.63;;;;;;;;;;5066555;28;20028;-71
2020/12/15 13:18:09;;;;;;;67.30;36.40;;;;;;;;;;5037298;28;20040;-71
2020/12/15 13:20:35;;;;;;;67.80;36.33;;;;;;;;;;5066308;28;20020;-71
2020/12/15 13:23:01;;;;;;;65.82;37.67;;;;;;;;;;5055163;28;20029;-71
2020/12/15 13:25:26;;;;;;;59.08;32.95;;;;;;;;;;5059575;28;20021;-71
2020/12/15 13:27:52;;;;;;;60.90;33.33;;;;;;;;;;5065481;28;20023;-71
2020/12/15 13:30:17;;;;;;;71.32;34.60;;;;;;;;;;5068163;28;20020;-72
2020/12/15 13:32:43;;;;;;;74.53;36.20;;;;;;;;;;5060574;28;20035;-72
2020/12/15 13:35:09;;;;;;;73.95;35.45;;;;;;;;;;5071719;28;20097;-72
2020/12/15 13:37:35;;;;;;;66.45;34.15;;;;;;;;;;5074825;28;20103;-71
2020/12/15 13:40:00;;;;;;;71.70;37.28;;;;;;;;;;5066875;28;20044;-71
2020/12/15 13:42:26;;;;;;;76.97;44.65;;;;;;;;;;5056931;28;20074;-71
2020/12/15 13:44:53;;;;;;;86.25;48.95;;;;;;;;;;5066992;28;20379;-72
2020/12/15 13:47:19;;;;;;;72.30;39.33;;;;;;;;;;5053290;28;20064;-71
2020/12/15 13:49:48;;;;;;;61.40;33.45;;;;;;;;;;5058728;28;20419;-72
2020/12/15 13:52:14;;;;;;;62.35;34.70;;;;;;;;;;5056497;28;20033;-72
2020/12/15 13:54:40;;;;;;;67.93;35.40;;;;;;;;;;5062091;28;20020;-72
2020/12/15 13:57:07;;;;;;;75.82;40.90;;;;;;;;;;5074534;28;20107;-72
2020/12/15 13:59:32;;;;;;;120.70;73.50;;;;;;;;;;5056070;28;20593;-72
2020/12/15 14:01:59;;;;;;;126.10;74.28;;;;;;;;;;5056552;28;20036;-71
2020/12/15 14:04:25;;;;;;;94.70;54.33;;;;;;;;;;5074410;28;20031;-71
2020/12/15 14:06:50;;;;;;;97.28;52.60;;;;;;;;;;5074273;28;20028;-71
2020/12/15 14:09:16;;;;;;;99.88;55.50;;;;;;;;;;5074359;28;20507;-72
2020/12/15 14:11:41;;;;;;;95.32;52.70;;;;;;;;;;5056362;28;20031;-71
2020/12/15 14:14:07;;;;;;;109.57;56.83;;;;;;;;;;5064752;28;20025;-72
2020/12/15 14:16:33;;;;;;;94.53;51.50;;;;;;;;;;5053698;28;20021;-72
2020/12/15 14:18:58;;;;;;;168.40;89.90;;;;;;;;;;5060898;28;20079;-72
2020/12/15 14:21:24;;;;;;;116.50;64.22;;;;;;;;;;5040764;28;20471;-72
2020/12/15 14:23:49;;;;;;;79.35;47.00;;;;;;;;;;5054128;28;20078;-71
2020/12/15 14:26:16;;;;;;;94.60;55.67;;;;;;;;;;5053828;28;20029;-72
2020/12/15 14:28:41;;;;;;;84.90;52.35;;;;;;;;;;5053875;28;20449;-72
2020/12/15 14:31:07;;;;;;;77.25;45.70;;;;;;;;;;5053911;28;20139;-71
2020/12/15 14:33:32;;;;;;;84.20;50.83;;;;;;;;;;5053592;28;20055;-71
2020/12/15 14:35:58;;;;;;;78.88;50.40;;;;;;;;;;5053601;28;20029;-71
2020/12/15 14:38:26;;;;;;;153.65;101.88;;;;;;;;;;5053686;28;20020;-71
2020/12/15 14:40:52;;;;;;;84.85;55.17;;;;;;;;;;5053770;28;20052;-71
2020/12/15 14:43:18;;;;;;;67.47;42.67;;;;;;;;;;5056443;28;20463;-71
2020/12/15 14:45:43;;;;;;;54.33;33.70;;;;;;;;;;5048629;28;20078;-71
2020/12/15 14:48:10;;;;;;;43.90;26.67;;;;;;;;;;5035576;28;20340;-71
2020/12/15 14:50:36;;;;;;;48.05;26.80;;;;;;;;;;5036057;28;20032;-71
2020/12/15 14:53:02;;;;;;;50.35;29.30;;;;;;;;;;5053747;28;20021;-70
2020/12/15 14:55:27;;;;;;;62.88;35.28;;;;;;;;;;5053597;28;20028;-69
2020/12/15 14:57:53;;;;;;;72.57;40.97;;;;;;;;;;5035460;28;20074;-70
2020/12/15 15:00:19;;;;;;;75.30;43.13;;;;;;;;;;5057591;28;20056;-69
2020/12/15 15:02:45;;;;;;;78.28;43.05;;;;;;;;;;5060187;28;20028;-70
2020/12/15 15:05:10;;;;;;;78.82;46.60;;;;;;;;;;5053392;28;20043;-70
2020/12/15 15:07:36;;;;;;;114.25;62.47;;;;;;;;;;5052267;28;20355;-69
2020/12/15 15:10:02;;;;;;;93.95;52.42;;;;;;;;;;5068964;28;20162;-70
2020/12/15 15:12:28;;;;;;;81.88;48.10;;;;;;;;;;5052910;28;20387;-57
2020/12/15 15:14:54;;;;;;;82.70;47.70;;;;;;;;;;5053196;28;20037;-70
2020/12/15 15:17:20;;;;;;;126.93;75.30;;;;;;;;;;5053287;28;20024;-70
2020/12/15 15:19:46;;;;;;;111.70;71.13;;;;;;;;;;5035555;28;20057;-69
2020/12/15 15:22:11;;;;;;;115.72;68.40;;;;;;;;;;5053258;28;20074;-69